Time;durP1;ratioP1;P1;durP2;ratioP2;P2;SDS_P1;SDS_P2;PMS_P1;PMS_P2;Temp;Humidity;BMP_temperature;BMP_pressure;BME280_temperature;BME280_humidity;BME280_pressure;Samples;Min_cycle;Max_cycle;Signal;HPM_P1;HPM_P2
2023/12/19 00:01:49;;;;;;;9.93;8.55;;;9.30;99.90;;;;;;5076021;28;20220;-79
2023/12/19 00:04:16;;;;;;;10.60;8.65;;;9.30;99.90;;;;;;5076339;28;20224;-79
2023/12/19 00:06:43;;;;;;;7.60;6.93;;;9.30;99.90;;;;;;5077230;28;20223;-79
2023/12/19 00:09:10;;;;;;;12.45;9.73;;;9.30;99.90;;;;;;5076062;28;20224;-79
2023/12/19 00:11:37;;;;;;;8.95;7.72;;;9.40;99.90;;;;;;5076598;28;20227;-78
2023/12/19 00:14:04;;;;;;;8.65;7.47;;;9.30;99.90;;;;;;5075811;28;20231;-79
2023/12/19 00:16:32;;;;;;;9.63;7.45;;;9.30;99.90;;;;;;5076058;28;20370;-79
2023/12/19 00:18:59;;;;;;;10.70;8.38;;;9.30;99.90;;;;;;5076339;28;20708;-79
2023/12/19 00:21:27;;;;;;;9.07;8.05;;;9.30;99.90;;;;;;5075851;28;20303;-79
2023/12/19 00:23:54;;;;;;;11.90;9.82;;;9.30;99.90;;;;;;5075263;28;20224;-79
2023/12/19 00:26:21;;;;;;;8.65;7.40;;;9.30;99.90;;;;;;5075567;28;20223;-79
2023/12/19 00:28:48;;;;;;;8.45;6.95;;;9.30;99.90;;;;;;5076166;28;20243;-78
2023/12/19 00:31:20;;;;;;;12.30;10.52;;;9.30;99.90;;;;;;5074704;28;20236;-77
2023/12/19 00:33:49;;;;;;;10.70;9.60;;;9.30;99.90;;;;;;5075857;28;20677;-77
2023/12/19 00:36:22;;;;;;;9.40;8.32;;;9.30;99.90;;;;;;5074905;28;20224;-78
2023/12/19 00:38:50;;;;;;;28.85;20.90;;;9.40;99.90;;;;;;5075963;28;20227;-77
2023/12/19 00:41:17;;;;;;;15.30;10.57;;;9.40;99.90;;;;;;5075186;28;20228;-79
2023/12/19 00:43:45;;;;;;;15.75;11.82;;;9.40;99.90;;;;;;5076303;28;20567;-77
2023/12/19 00:46:12;;;;;;;10.40;8.40;;;9.40;99.90;;;;;;5074890;28;20626;-77
2023/12/19 00:48:39;;;;;;;8.93;8.02;;;9.40;99.90;;;;;;5075641;28;20216;-79
2023/12/19 00:51:11;;;;;;;11.07;8.18;;;9.50;99.90;;;;;;5075621;28;20231;-79
2023/12/19 00:53:38;;;;;;;11.30;10.20;;;9.50;99.90;;;;;;5074812;28;20235;-79
2023/12/19 00:56:08;;;;;;;13.73;12.05;;;9.50;99.90;;;;;;5074892;28;20228;-79
2023/12/19 00:58:36;;;;;;;10.95;7.50;;;9.60;99.90;;;;;;5075258;28;20256;-77
2023/12/19 01:01:03;;;;;;;8.10;7.13;;;9.60;99.90;;;;;;5075474;28;20224;-79
2023/12/19 01:03:30;;;;;;;9.23;7.10;;;9.60;99.90;;;;;;5075269;28;20296;-79
2023/12/19 01:06:00;;;;;;;7.53;6.25;;;9.60;99.90;;;;;;5075230;28;20224;-77
2023/12/19 01:08:28;;;;;;;8.43;6.90;;;9.60;99.90;;;;;;5074491;28;20227;-77
2023/12/19 01:10:56;;;;;;;6.50;5.90;;;9.60;99.90;;;;;;5074883;28;20216;-77
2023/12/19 01:13:23;;;;;;;7.35;6.30;;;9.60;99.90;;;;;;5074490;28;20235;-77
2023/12/19 01:15:51;;;;;;;8.82;7.93;;;9.60;99.90;;;;;;5075219;28;20223;-78
2023/12/19 01:18:18;;;;;;;6.65;6.05;;;9.60;99.90;;;;;;5074501;28;20227;-77
2023/12/19 01:20:47;;;;;;;7.75;6.70;;;9.60;99.90;;;;;;5075246;28;20231;-77
2023/12/19 01:23:14;;;;;;;9.13;8.20;;;9.50;99.90;;;;;;5074729;28;20228;-77
2023/12/19 01:25:42;;;;;;;46.17;22.98;;;9.50;99.90;;;;;;5074440;28;20243;-78
2023/12/19 01:28:10;;;;;;;6.32;5.82;;;9.60;99.90;;;;;;5075026;28;20301;-78
2023/12/19 01:30:37;;;;;;;7.05;6.45;;;9.60;99.90;;;;;;5074508;28;20239;-77
2023/12/19 01:33:05;;;;;;;9.75;6.63;;;9.60;99.90;;;;;;5074761;28;20239;-77
2023/12/19 01:35:32;;;;;;;6.95;5.60;;;9.60;99.90;;;;;;5074480;28;20224;-78
2023/12/19 01:37:59;;;;;;;11.60;7.95;;;9.60;99.90;;;;;;5074745;28;20299;-77
2023/12/19 01:40:36;;;;;;;9.32;6.75;;;9.70;99.90;;;;;;5073418;28;20565;-77
2023/12/19 01:43:19;;;;;;;7.70;7.00;;;9.70;99.90;;;;;;5074692;28;20296;-77
2023/12/19 01:45:46;;;;;;;6.38;5.88;;;9.70;99.90;;;;;;5073862;28;20220;-77
2023/12/19 01:48:14;;;;;;;11.95;8.85;;;9.70;99.90;;;;;;5074402;28;20673;-79
2023/12/19 01:50:42;;;;;;;7.88;6.50;;;9.70;99.90;;;;;;5073772;28;20285;-78
2023/12/19 01:53:10;;;;;;;8.75;7.40;;;9.60;99.90;;;;;;5073367;28;20254;-77
2023/12/19 01:55:39;;;;;;;12.50;11.18;;;9.60;99.90;;;;;;5073210;28;20250;-77
2023/12/19 01:58:08;;;;;;;8.27;7.57;;;9.60;99.90;;;;;;5074324;28;20234;-78
2023/12/19 02:00:36;;;;;;;9.63;8.00;;;9.70;99.90;;;;;;5073876;28;20220;-79
2023/12/19 02:03:03;;;;;;;6.72;5.72;;;9.70;99.90;;;;;;5073997;28;20232;-77
2023/12/19 02:05:31;;;;;;;16.60;12.85;;;9.70;99.90;;;;;;5073496;28;20224;-77
2023/12/19 02:07:59;;;;;;;8.43;7.65;;;9.70;99.90;;;;;;5074093;28;20220;-78
2023/12/19 02:10:27;;;;;;;7.63;6.15;;;9.70;99.90;;;;;;5073821;28;20220;-78
2023/12/19 02:12:54;;;;;;;12.50;10.50;;;9.70;99.90;;;;;;5074003;28;20224;-78
2023/12/19 02:15:23;;;;;;;11.70;7.75;;;9.70;99.90;;;;;;5074149;28;20286;-78
2023/12/19 02:17:50;;;;;;;6.88;6.25;;;9.80;99.90;;;;;;5073418;28;20228;-78
2023/12/19 02:20:16;;;;;;;8.15;7.35;;;9.70;99.90;;;;;;5073553;28;20235;-78
2023/12/19 02:22:44;;;;;;;10.02;6.72;;;9.70;99.90;;;;;;5073022;28;20232;-77
2023/12/19 02:25:13;;;;;;;8.60;7.10;;;9.70;99.90;;;;;;5072983;28;20220;-76
2023/12/19 02:27:40;;;;;;;7.32;6.18;;;9.70;99.90;;;;;;5073036;28;20227;-77
2023/12/19 02:30:08;;;;;;;8.80;7.90;;;9.70;99.90;;;;;;5073941;28;20682;-78
2023/12/19 02:32:36;;;;;;;8.70;7.80;;;9.70;99.90;;;;;;5072955;28;20289;-77
2023/12/19 02:35:03;;;;;;;10.63;8.40;;;9.70;99.90;;;;;;5073500;28;20228;-77
2023/12/19 02:37:29;;;;;;;8.77;7.63;;;9.70;99.90;;;;;;5073209;28;20228;-78
2023/12/19 02:39:56;;;;;;;8.40;7.60;;;9.70;99.90;;;;;;5072911;28;20228;-77
2023/12/19 02:42:25;;;;;;;8.55;7.75;;;9.70;99.90;;;;;;5074018;28;20239;-78
2023/12/19 02:44:52;;;;;;;12.57;10.48;;;9.70;99.90;;;;;;5072994;28;20216;-78
2023/12/19 02:47:19;;;;;;;7.55;6.55;;;9.70;99.90;;;;;;5072313;28;20566;-78
2023/12/19 02:49:46;;;;;;;8.73;7.93;;;9.80;99.90;;;;;;5072967;28;20740;-77
2023/12/19 02:52:13;;;;;;;12.65;11.35;;;9.70;99.90;;;;;;5073320;28;20228;-77
2023/12/19 02:54:40;;;;;;;11.38;10.18;;;9.70;99.90;;;;;;5072744;28;20238;-77
2023/12/19 02:57:07;;;;;;;12.43;9.68;;;9.70;99.90;;;;;;5073379;28;20719;-77
2023/12/19 02:59:35;;;;;;;8.43;6.60;;;9.70;99.90;;;;;;5072485;28;20235;-76
2023/12/19 03:02:02;;;;;;;8.55;7.65;;;9.80;99.90;;;;;;5073203;28;20227;-75
2023/12/19 03:04:29;;;;;;;12.55;11.27;;;9.80;99.90;;;;;;5073100;28;20223;-76
2023/12/19 03:06:56;;;;;;;9.05;8.15;;;9.80;99.90;;;;;;5073062;28;20220;-76
2023/12/19 03:09:23;;;;;;;9.52;8.63;;;9.80;99.90;;;;;;5073118;28;20299;-75
2023/12/19 03:12:02;;;;;;;7.85;7.13;;;9.80;99.90;;;;;;5072387;28;20684;-75
2023/12/19 03:14:29;;;;;;;8.13;7.32;;;9.80;99.90;;;;;;5073234;28;20219;-75
2023/12/19 03:16:57;;;;;;;10.65;9.55;;;9.80;99.90;;;;;;5072102;28;20231;-75
2023/12/19 03:19:25;;;;;;;12.18;10.00;;;9.80;99.90;;;;;;5073272;28;20235;-75
2023/12/19 03:21:52;;;;;;;10.55;9.35;;;9.80;99.90;;;;;;5072402;28;20317;-76
2023/12/19 03:24:19;;;;;;;12.30;10.13;;;9.80;99.90;;;;;;5072977;28;20228;-76
2023/12/19 03:26:46;;;;;;;11.38;9.55;;;9.80;99.90;;;;;;5072946;28;20231;-77
2023/12/19 03:29:13;;;;;;;11.63;9.93;;;9.90;99.90;;;;;;5073024;28;20570;-75
2023/12/19 03:31:40;;;;;;;10.52;8.10;;;9.80;99.90;;;;;;5072455;28;20323;-79
2023/12/19 03:34:08;;;;;;;14.65;11.60;;;9.80;99.90;;;;;;5073313;28;20257;-77
2023/12/19 03:36:35;;;;;;;14.38;10.40;;;9.80;99.90;;;;;;5072667;28;20228;-78
2023/12/19 03:39:03;;;;;;;9.60;7.80;;;9.90;99.90;;;;;;5072390;28;20220;-79
2023/12/19 03:41:30;;;;;;;17.98;14.15;;;9.90;99.90;;;;;;5072726;28;20227;-79
2023/12/19 03:44:00;;;;;;;13.32;11.93;;;9.90;99.90;;;;;;5072498;28;20227;-79
2023/12/19 03:46:27;;;;;;;13.35;9.80;;;9.90;99.90;;;;;;5073137;28;20232;-79
2023/12/19 03:48:54;;;;;;;9.05;8.13;;;9.90;99.90;;;;;;5072572;28;20228;-79
2023/12/19 03:51:23;;;;;;;11.50;9.75;;;9.90;99.90;;;;;;5073091;28;20614;-79
2023/12/19 03:53:50;;;;;;;10.45;9.40;;;10.00;99.90;;;;;;5072460;28;20602;-80
2023/12/19 03:56:16;;;;;;;9.45;8.45;;;10.00;99.90;;;;;;5073615;28;20237;-80
2023/12/19 03:58:43;;;;;;;16.08;10.48;;;10.00;99.90;;;;;;5076164;28;20224;-79
2023/12/19 04:01:12;;;;;;;13.18;10.70;;;9.90;99.90;;;;;;5080769;28;20773;-79
2023/12/19 04:03:39;;;;;;;9.82;8.70;;;9.90;99.90;;;;;;5080605;28;20232;-79
2023/12/19 04:06:06;;;;;;;10.75;9.65;;;9.90;99.90;;;;;;5080589;28;20243;-79
2023/12/19 04:08:34;;;;;;;9.38;8.55;;;10.00;99.90;;;;;;5077836;28;20301;-78
2023/12/19 04:11:03;;;;;;;9.65;8.65;;;9.90;99.90;;;;;;5078377;28;20259;-79
2023/12/19 04:13:29;;;;;;;11.48;8.82;;;9.90;99.90;;;;;;5079897;28;20224;-79
2023/12/19 04:15:56;;;;;;;9.67;8.07;;;9.90;99.90;;;;;;5076315;28;20585;-77
2023/12/19 04:18:23;;;;;;;9.57;8.38;;;10.00;99.90;;;;;;5077186;28;20473;-77
2023/12/19 04:20:50;;;;;;;18.35;12.23;;;10.00;99.90;;;;;;5075841;28;20235;-79
2023/12/19 04:23:17;;;;;;;14.45;10.90;;;9.90;99.90;;;;;;5076517;28;20224;-79
2023/12/19 04:25:46;;;;;;;9.52;7.78;;;10.00;99.90;;;;;;5075867;28;20220;-79
2023/12/19 04:28:13;;;;;;;11.20;9.80;;;10.00;99.90;;;;;;5076220;28;20246;-78
2023/12/19 04:30:41;;;;;;;10.40;8.75;;;10.00;99.90;;;;;;5075676;28;20227;-77
2023/12/19 04:33:08;;;;;;;9.70;8.05;;;10.00;99.90;;;;;;5075836;28;20228;-78
2023/12/19 04:35:35;;;;;;;10.93;9.80;;;10.00;99.90;;;;;;5075971;28;20224;-77
2023/12/19 04:38:02;;;;;;;8.90;8.10;;;10.00;99.90;;;;;;5075570;28;20235;-77
2023/12/19 04:40:29;;;;;;;10.63;9.55;;;10.00;99.90;;;;;;5075668;28;20228;-77
2023/12/19 04:42:57;;;;;;;9.77;8.77;;;10.10;99.90;;;;;;5075087;28;20595;-78
2023/12/19 04:45:24;;;;;;;14.27;11.00;;;10.10;99.90;;;;;;5075957;28;20219;-78
2023/12/19 04:47:51;;;;;;;11.48;10.27;;;10.00;99.90;;;;;;5074923;28;20303;-79
2023/12/19 04:50:18;;;;;;;12.02;9.70;;;10.00;99.90;;;;;;5075356;28;20562;-78
2023/12/19 04:52:45;;;;;;;9.95;8.95;;;10.00;99.90;;;;;;5075009;28;20227;-78
2023/12/19 04:55:12;;;;;;;12.77;10.57;;;10.00;99.90;;;;;;5075414;28;20216;-78
2023/12/19 04:57:39;;;;;;;10.77;9.77;;;10.00;99.90;;;;;;5075482;28;20216;-79
2023/12/19 05:00:09;;;;;;;16.73;12.30;;;10.00;99.90;;;;;;5075011;28;20220;-78
2023/12/19 05:02:36;;;;;;;12.82;10.80;;;10.10;99.90;;;;;;5075394;28;20307;-78
2023/12/19 05:05:03;;;;;;;10.27;9.18;;;10.10;99.90;;;;;;5074795;28;20527;-77
2023/12/19 05:07:31;;;;;;;10.18;9.23;;;10.10;99.90;;;;;;5075454;28;20281;-77
2023/12/19 05:09:58;;;;;;;9.82;8.75;;;10.10;99.90;;;;;;5074091;28;20220;-79
2023/12/19 05:12:25;;;;;;;10.48;9.35;;;10.10;99.90;;;;;;5075181;28;20228;-78
2023/12/19 05:14:52;;;;;;;11.02;9.93;;;10.10;99.90;;;;;;5074665;28;20238;-78
2023/12/19 05:17:21;;;;;;;10.93;9.70;;;10.10;99.90;;;;;;5075082;28;20842;-78
2023/12/19 05:19:48;;;;;;;12.15;10.98;;;10.10;99.90;;;;;;5074125;28;20228;-79
2023/12/19 05:22:14;;;;;;;14.05;10.70;;;10.10;99.90;;;;;;5074969;28;20286;-78
2023/12/19 05:24:42;;;;;;;10.18;9.07;;;10.10;99.90;;;;;;5074669;28;20232;-79
2023/12/19 05:27:09;;;;;;;13.10;11.73;;;10.10;99.90;;;;;;5074690;28;20216;-78
2023/12/19 05:29:37;;;;;;;16.20;14.15;;;10.10;99.90;;;;;;5074830;28;20294;-78
2023/12/19 05:32:04;;;;;;;11.80;10.55;;;10.10;99.90;;;;;;5074074;28;20244;-78
2023/12/19 05:34:33;;;;;;;13.18;10.40;;;10.10;99.90;;;;;;5075021;28;20235;-79
2023/12/19 05:37:00;;;;;;;11.98;10.82;;;10.10;99.90;;;;;;5074371;28;20247;-78
2023/12/19 05:39:27;;;;;;;13.00;10.77;;;10.10;99.90;;;;;;5074301;28;20727;-78
2023/12/19 05:41:56;;;;;;;15.85;12.73;;;10.20;99.90;;;;;;5073892;28;20281;-78
2023/12/19 05:44:23;;;;;;;12.45;10.95;;;10.20;99.90;;;;;;5074631;28;20224;-77
2023/12/19 05:46:51;;;;;;;10.68;9.60;;;10.20;99.90;;;;;;5073686;28;20220;-78
2023/12/19 05:49:18;;;;;;;10.63;9.52;;;10.20;99.90;;;;;;5074489;28;20220;-78
2023/12/19 05:51:46;;;;;;;10.95;9.85;;;10.20;99.90;;;;;;5073754;28;20277;-78
2023/12/19 05:54:16;;;;;;;9.82;8.93;;;10.20;99.90;;;;;;5073760;28;20588;-77
2023/12/19 05:56:43;;;;;;;10.07;8.93;;;10.10;99.90;;;;;;5074313;28;20231;-77
2023/12/19 05:59:20;;;;;;;8.48;7.68;;;10.10;99.90;;;;;;5073250;28;20219;-77
2023/12/19 06:01:46;;;;;;;10.63;9.63;;;10.00;99.90;;;;;;5073944;28;20240;-77
2023/12/19 06:04:13;;;;;;;10.68;9.57;;;10.00;99.90;;;;;;5073554;28;20215;-77
2023/12/19 06:06:44;;;;;;;9.88;8.60;;;10.00;99.90;;;;;;5074147;28;20224;-77
2023/12/19 06:09:12;;;;;;;10.77;9.68;;;10.00;99.90;;;;;;5073449;28;20227;-77
2023/12/19 06:11:40;;;;;;;11.85;10.35;;;10.00;99.90;;;;;;5073620;28;20232;-77
2023/12/19 06:14:07;;;;;;;12.02;10.77;;;10.00;99.90;;;;;;5073555;28;20227;-77
2023/12/19 06:16:34;;;;;;;10.70;9.70;;;10.10;99.90;;;;;;5073795;28;20231;-77
2023/12/19 06:19:01;;;;;;;14.55;13.02;;;10.10;99.90;;;;;;5073383;28;20224;-78
2023/12/19 06:21:28;;;;;;;10.30;9.32;;;10.10;99.90;;;;;;5072970;28;20259;-78
2023/12/19 06:23:55;;;;;;;11.00;8.65;;;10.10;99.90;;;;;;5073098;28;20228;-78
2023/12/19 06:26:23;;;;;;;10.45;9.40;;;10.00;99.90;;;;;;5073915;28;20677;-77
2023/12/19 06:28:54;;;;;;;10.65;9.65;;;10.00;99.90;;;;;;5073357;28;20632;-78
2023/12/19 06:31:22;;;;;;;9.93;8.75;;;9.90;99.90;;;;;;5073021;28;20269;-79
2023/12/19 06:33:49;;;;;;;12.90;8.70;;;9.90;99.90;;;;;;5073718;28;20246;-78
2023/12/19 06:36:31;;;;;;;9.40;8.50;;;9.90;99.90;;;;;;5073552;28;20235;-79
2023/12/19 06:38:58;;;;;;;11.75;9.02;;;9.90;99.90;;;;;;5073121;28;20224;-77
2023/12/19 06:41:26;;;;;;;9.18;8.38;;;9.80;99.90;;;;;;5072643;28;20224;-78
2023/12/19 06:43:53;;;;;;;10.57;8.93;;;9.80;99.90;;;;;;5072747;28;20316;-79
2023/12/19 06:46:20;;;;;;;8.98;8.10;;;9.70;99.90;;;;;;5072774;28;20227;-79
2023/12/19 06:48:47;;;;;;;9.65;8.55;;;9.80;99.90;;;;;;5073298;28;20228;-77
2023/12/19 06:51:23;;;;;;;8.45;7.55;;;9.80;99.90;;;;;;5073133;28;20331;-77
2023/12/19 06:53:52;;;;;;;8.07;7.28;;;9.80;99.90;;;;;;5073189;28;20232;-78
2023/12/19 06:56:19;;;;;;;12.80;10.75;;;9.70;99.90;;;;;;5073046;28;20262;-77
2023/12/19 06:58:49;;;;;;;13.43;9.80;;;9.70;99.90;;;;;;5073475;28;20614;-78
2023/12/19 07:01:16;;;;;;;10.30;9.18;;;9.80;99.90;;;;;;5072817;28;20251;-78
2023/12/19 07:03:43;;;;;;;12.35;10.45;;;9.80;99.90;;;;;;5073465;28;20251;-78
2023/12/19 07:06:13;;;;;;;12.02;10.82;;;9.80;99.90;;;;;;5073311;28;20244;-78
2023/12/19 07:08:40;;;;;;;16.10;11.73;;;9.80;99.90;;;;;;5073295;28;20666;-79
2023/12/19 07:11:07;;;;;;;12.00;10.43;;;9.80;99.90;;;;;;5069320;28;20303;-79
2023/12/19 07:13:35;;;;;;;10.20;9.13;;;9.80;99.90;;;;;;5064458;28;20228;-77
2023/12/19 07:16:04;;;;;;;10.38;9.15;;;9.80;99.90;;;;;;5074169;28;20224;-77
2023/12/19 07:18:31;;;;;;;10.95;8.95;;;9.90;99.90;;;;;;5073005;28;20586;-77
2023/12/19 07:20:58;;;;;;;10.65;9.65;;;9.90;99.90;;;;;;5072799;28;20228;-79
2023/12/19 07:23:25;;;;;;;13.75;9.02;;;10.00;99.90;;;;;;5072617;28;20240;-78
2023/12/19 07:25:52;;;;;;;10.10;9.02;;;10.00;99.90;;;;;;5072737;28;20455;-78
2023/12/19 07:28:19;;;;;;;7.38;6.75;;;10.10;99.90;;;;;;5072697;28;20558;-77
2023/12/19 07:30:46;;;;;;;7.85;6.70;;;10.10;99.90;;;;;;5073167;28;20665;-77
2023/12/19 07:33:15;;;;;;;9.10;8.20;;;10.20;99.90;;;;;;5074756;28;20235;-77
2023/12/19 07:35:42;;;;;;;9.10;7.50;;;10.20;99.90;;;;;;5077233;28;20228;-77
2023/12/19 07:38:10;;;;;;;8.85;7.88;;;10.10;99.90;;;;;;5076301;28;20231;-77
2023/12/19 07:40:37;;;;;;;10.50;8.75;;;10.10;99.90;;;;;;5076588;28;20677;-77
2023/12/19 07:43:04;;;;;;;8.70;7.80;;;10.10;99.90;;;;;;5076064;28;20607;-77
2023/12/19 07:45:32;;;;;;;9.57;7.80;;;10.10;99.90;;;;;;5077123;28;20219;-78
2023/12/19 07:48:05;;;;;;;7.82;6.70;;;10.10;99.90;;;;;;5076765;28;20645;-78
2023/12/19 07:50:33;;;;;;;8.23;7.43;;;10.10;99.90;;;;;;5076724;28;20680;-77
2023/12/19 07:53:00;;;;;;;12.40;8.93;;;10.10;99.90;;;;;;5076350;28;20240;-79
2023/12/19 07:55:27;;;;;;;11.80;8.88;;;10.10;99.90;;;;;;5075816;28;20231;-79
2023/12/19 07:57:54;;;;;;;10.07;8.48;;;10.10;99.90;;;;;;5076454;28;20230;-78
2023/12/19 08:00:21;;;;;;;11.10;9.65;;;10.00;99.90;;;;;;5076084;28;20220;-79
2023/12/19 08:02:52;;;;;;;12.73;8.95;;;9.90;99.90;;;;;;5076787;28;20232;-77
2023/12/19 08:05:19;;;;;;;9.90;9.00;;;9.90;99.90;;;;;;5076375;28;20223;-77
2023/12/19 08:07:48;;;;;;;14.10;9.75;;;9.90;99.90;;;;;;5076454;28;20281;-77
2023/12/19 08:10:15;;;;;;;11.77;10.43;;;9.90;99.90;;;;;;5076414;28;20224;-77
2023/12/19 08:12:41;;;;;;;13.18;8.95;;;9.90;99.90;;;;;;5077216;28;20219;-79
2023/12/19 08:15:10;;;;;;;9.27;8.27;;;9.80;99.90;;;;;;5080154;28;20236;-78
2023/12/19 08:17:38;;;;;;;11.18;9.38;;;9.80;99.90;;;;;;5081546;28;20227;-78
2023/12/19 08:20:07;;;;;;;11.10;9.27;;;9.80;99.90;;;;;;5070196;28;20220;-78
2023/12/19 08:22:34;;;;;;;10.95;9.15;;;9.80;99.90;;;;;;5065802;28;20229;-78
2023/12/19 08:25:02;;;;;;;12.68;9.85;;;9.80;99.90;;;;;;5061613;28;20225;-79
2023/12/19 08:27:35;;;;;;;9.90;9.00;;;9.80;99.90;;;;;;5059600;28;20732;-78
2023/12/19 08:30:01;;;;;;;11.98;10.77;;;9.70;99.90;;;;;;5058497;28;20224;-78
2023/12/19 08:32:29;;;;;;;8.50;7.63;;;9.70;99.90;;;;;;5056206;28;20229;-79
2023/12/19 08:34:56;;;;;;;18.30;10.07;;;9.70;99.90;;;;;;5057131;28;20224;-78
2023/12/19 08:37:24;;;;;;;10.10;9.02;;;9.60;99.90;;;;;;5055798;28;20229;-78
2023/12/19 08:39:54;;;;;;;12.43;11.18;;;9.60;99.90;;;;;;5055271;28;20244;-79
2023/12/19 08:42:22;;;;;;;12.52;9.68;;;9.50;99.90;;;;;;5055285;28;20248;-79
2023/12/19 08:44:50;;;;;;;12.93;10.50;;;9.50;99.90;;;;;;5056371;28;20404;-78
2023/12/19 08:47:17;;;;;;;10.82;9.65;;;9.50;99.90;;;;;;5059830;28;20224;-79
2023/12/19 08:49:44;;;;;;;17.73;14.40;;;9.50;99.90;;;;;;5055797;28;20232;-79
2023/12/19 08:52:12;;;;;;;19.75;15.35;;;9.40;99.90;;;;;;5055826;28;20605;-78
2023/12/19 08:54:40;;;;;;;16.50;14.82;;;9.40;99.90;;;;;;5055401;28;20225;-79
2023/12/19 08:57:09;;;;;;;11.90;10.70;;;9.30;99.90;;;;;;5055562;28;20221;-77
2023/12/19 08:59:38;;;;;;;17.20;12.93;;;9.30;99.90;;;;;;5054945;28;20709;-77
2023/12/19 09:02:05;;;;;;;13.48;11.95;;;9.30;99.90;;;;;;5054700;28;20282;-77
2023/12/19 09:04:32;;;;;;;13.45;12.00;;;9.30;99.90;;;;;;5055091;28;20224;-79
2023/12/19 09:06:59;;;;;;;12.10;10.90;;;9.30;99.90;;;;;;5055353;28;20225;-78
2023/12/19 09:09:27;;;;;;;13.35;10.68;;;9.30;99.90;;;;;;5054762;28;20229;-78
2023/12/19 09:11:54;;;;;;;12.68;11.40;;;9.20;99.90;;;;;;5055214;28;20236;-79
2023/12/19 09:14:21;;;;;;;14.60;13.10;;;9.20;99.90;;;;;;5055147;28;20229;-78
2023/12/19 09:16:50;;;;;;;13.18;11.15;;;9.20;99.90;;;;;;5054864;28;20221;-78
2023/12/19 09:19:17;;;;;;;11.93;9.98;;;9.20;99.90;;;;;;5055229;28;20678;-78
2023/12/19 09:21:44;;;;;;;10.75;9.60;;;9.20;99.90;;;;;;5054296;28;20248;-79
2023/12/19 09:24:11;;;;;;;10.30;9.20;;;9.20;99.90;;;;;;5054681;28;20219;-79
2023/12/19 09:26:39;;;;;;;11.10;9.85;;;9.20;99.90;;;;;;5054666;28;20565;-78
2023/12/19 09:29:07;;;;;;;14.68;10.20;;;9.20;99.90;;;;;;5054905;28;20233;-79
2023/12/19 09:31:34;;;;;;;10.00;9.00;;;9.20;99.90;;;;;;5054700;28;20255;-79
2023/12/19 09:34:02;;;;;;;11.27;10.15;;;9.20;99.90;;;;;;5054708;28;20251;-78
2023/12/19 09:36:29;;;;;;;11.20;9.55;;;9.20;99.90;;;;;;5054529;28;20585;-78
2023/12/19 09:38:56;;;;;;;9.75;8.75;;;9.10;99.90;;;;;;5054437;28;20212;-78
2023/12/19 09:41:24;;;;;;;11.82;9.85;;;9.20;99.90;;;;;;5054649;28;20228;-77
2023/12/19 09:43:51;;;;;;;16.67;9.85;;;9.10;99.90;;;;;;5054080;28;20228;-79
2023/12/19 09:46:20;;;;;;;9.90;8.77;;;9.20;99.90;;;;;;5054813;28;20235;-79
2023/12/19 09:48:50;;;;;;;11.13;10.02;;;9.20;99.90;;;;;;5054323;28;20228;-78
2023/12/19 09:51:26;;;;;;;11.50;9.45;;;9.20;99.90;;;;;;5054270;28;20308;-78
2023/12/19 09:53:55;;;;;;;9.35;8.45;;;9.20;99.90;;;;;;5053865;28;20686;-79
2023/12/19 09:56:23;;;;;;;12.35;10.77;;;9.10;99.90;;;;;;5054297;28;20362;-78
2023/12/19 09:58:52;;;;;;;13.10;9.82;;;9.00;99.90;;;;;;5053830;28;20233;-79
2023/12/19 10:01:19;;;;;;;11.43;9.40;;;9.10;99.90;;;;;;5054136;28;20228;-79
2023/12/19 10:03:49;;;;;;;10.30;9.30;;;9.00;99.90;;;;;;5053934;28;20225;-79
2023/12/19 10:06:18;;;;;;;9.32;8.32;;;9.00;99.90;;;;;;5054253;28;20225;-79
2023/12/19 10:08:45;;;;;;;10.35;8.88;;;9.10;99.90;;;;;;5053744;28;20303;-79
2023/12/19 10:11:17;;;;;;;10.35;9.15;;;9.10;99.90;;;;;;5045513;28;20480;-77
2023/12/19 10:13:47;;;;;;;9.48;8.50;;;9.00;99.90;;;;;;5052875;28;20239;-77
2023/12/19 10:16:17;;;;;;;11.60;8.90;;;9.00;99.90;;;;;;5053961;28;20220;-79
2023/12/19 10:18:45;;;;;;;10.32;9.23;;;9.00;99.90;;;;;;5053490;28;20529;-79
2023/12/19 10:21:14;;;;;;;14.82;11.60;;;8.90;99.90;;;;;;5054218;28;20857;-79
2023/12/19 10:23:43;;;;;;;12.93;10.48;;;9.00;99.90;;;;;;5053217;28;20583;-78
2023/12/19 10:26:10;;;;;;;12.57;11.27;;;8.90;99.90;;;;;;5053673;28;20289;-77
2023/12/19 10:28:38;;;;;;;13.48;11.65;;;9.00;99.90;;;;;;5053768;28;20740;-78
2023/12/19 10:31:11;;;;;;;15.68;13.02;;;9.00;99.90;;;;;;5053358;28;20212;-79
2023/12/19 10:33:43;;;;;;;15.85;12.48;;;9.10;99.90;;;;;;5053505;28;20282;-79
2023/12/19 10:36:22;;;;;;;11.32;10.13;;;9.10;99.90;;;;;;5053306;28;20236;-76
2023/12/19 10:38:51;;;;;;;11.82;9.60;;;9.10;99.90;;;;;;5053328;28;20224;-78
2023/12/19 10:41:22;;;;;;;9.85;8.95;;;9.10;99.90;;;;;;5053347;28;20681;-78
2023/12/19 10:43:51;;;;;;;11.77;8.90;;;9.10;99.90;;;;;;5052877;28;20671;-79
2023/12/19 10:46:24;;;;;;;10.63;9.63;;;9.10;99.90;;;;;;5053619;28;20311;-78
2023/12/19 10:48:52;;;;;;;11.18;9.93;;;9.20;99.90;;;;;;5053397;28;20224;-78
2023/12/19 10:51:32;;;;;;;10.68;9.73;;;9.20;99.90;;;;;;5053160;28;20670;-78
2023/12/19 10:54:09;;;;;;;13.73;9.98;;;9.20;99.90;;;;;;5052952;28;20238;-78
2023/12/19 10:56:46;;;;;;;10.00;9.10;;;9.20;99.90;;;;;;5053445;28;20221;-78
2023/12/19 10:59:20;;;;;;;14.63;13.18;;;9.20;99.90;;;;;;5053015;28;20343;-77
2023/12/19 11:01:52;;;;;;;14.60;13.20;;;9.10;99.90;;;;;;5053087;28;20571;-78
2023/12/19 11:04:23;;;;;;;12.23;10.85;;;9.10;99.90;;;;;;5051692;28;20228;-78
2023/12/19 11:06:58;;;;;;;12.13;10.18;;;9.10;99.90;;;;;;5052591;28;20225;-78
2023/12/19 11:09:33;;;;;;;9.05;8.25;;;9.10;99.90;;;;;;5053476;28;20673;-78
2023/12/19 11:12:01;;;;;;;11.95;10.27;;;9.10;99.90;;;;;;5053113;28;20224;-78
2023/12/19 11:14:28;;;;;;;10.48;9.43;;;9.10;99.90;;;;;;5053129;28;20221;-78
2023/12/19 11:16:59;;;;;;;10.70;9.68;;;9.10;99.90;;;;;;5053138;28;20278;-76
2023/12/19 11:19:30;;;;;;;12.65;11.02;;;9.10;99.90;;;;;;5052649;28;20591;-77
2023/12/19 11:22:04;;;;;;;11.27;9.88;;;9.20;99.90;;;;;;5052849;28;20229;-77
2023/12/19 11:24:41;;;;;;;11.43;10.13;;;9.20;99.90;;;;;;5052965;28;20628;-77
2023/12/19 11:27:16;;;;;;;11.07;9.93;;;9.20;99.90;;;;;;5052481;28;20238;-77
2023/12/19 11:29:50;;;;;;;10.90;9.80;;;9.30;99.90;;;;;;5052609;28;20236;-77
2023/12/19 11:32:38;;;;;;;10.00;8.98;;;9.30;99.90;;;;;;5052865;28;20260;-78
2023/12/19 11:35:09;;;;;;;12.55;10.73;;;9.30;99.90;;;;;;5052854;28;20285;-78
2023/12/19 11:37:37;;;;;;;11.57;10.38;;;9.30;99.90;;;;;;5052796;28;20297;-78
2023/12/19 11:40:08;;;;;;;10.60;9.60;;;9.30;99.90;;;;;;5052951;28;20274;-78
2023/12/19 11:42:43;;;;;;;13.77;9.50;;;9.30;99.90;;;;;;5052166;28;20225;-77
2023/12/19 11:45:38;;;;;;;10.98;9.38;;;9.40;99.90;;;;;;5053027;28;20232;-78
2023/12/19 11:48:36;;;;;;;10.55;9.45;;;9.40;99.90;;;;;;5052784;28;20631;-79
2023/12/19 11:51:03;;;;;;;12.23;10.05;;;9.40;99.90;;;;;;5052494;28;20319;-78
2023/12/19 11:53:30;;;;;;;9.90;8.90;;;9.40;99.90;;;;;;5052589;28;20236;-77
2023/12/19 11:56:08;;;;;;;13.43;10.00;;;9.40;99.90;;;;;;5052276;28;20713;-78
2023/12/19 11:58:35;;;;;;;10.48;9.38;;;9.40;99.90;;;;;;5052502;28;20217;-77
2023/12/19 12:01:04;;;;;;;12.07;10.00;;;9.50;99.90;;;;;;5052125;28;20228;-77
2023/12/19 12:03:31;;;;;;;15.95;11.50;;;9.50;99.90;;;;;;5052701;28;20228;-77
2023/12/19 12:05:58;;;;;;;11.52;9.27;;;9.50;99.90;;;;;;5052248;28;20221;-78
2023/12/19 12:08:25;;;;;;;13.65;10.32;;;9.50;99.90;;;;;;5052453;28;20225;-77
2023/12/19 12:11:00;;;;;;;10.32;9.25;;;9.50;99.90;;;;;;5052643;28;20596;-77
2023/12/19 12:13:32;;;;;;;11.23;9.95;;;9.50;99.90;;;;;;5052587;28;20250;-77
2023/12/19 12:16:00;;;;;;;16.05;12.32;;;9.60;99.90;;;;;;5052808;28;20567;-77
2023/12/19 12:18:30;;;;;;;12.27;11.07;;;9.50;99.90;;;;;;5052069;28;20236;-77
2023/12/19 12:21:06;;;;;;;13.45;11.80;;;9.60;99.90;;;;;;5056292;28;20224;-77
2023/12/19 12:23:33;;;;;;;12.95;11.38;;;9.60;99.90;;;;;;5055902;28;20221;-77
2023/12/19 12:26:08;;;;;;;11.75;10.55;;;9.60;99.90;;;;;;5055947;28;20694;-77
2023/12/19 12:28:37;;;;;;;12.30;9.95;;;9.60;99.90;;;;;;5055869;28;20654;-77
2023/12/19 12:31:04;;;;;;;11.52;10.35;;;9.60;99.90;;;;;;5056252;28;20227;-77
2023/12/19 12:33:36;;;;;;;13.52;11.63;;;9.70;99.90;;;;;;5055351;28;20308;-77
2023/12/19 12:36:12;;;;;;;11.82;10.43;;;9.70;99.90;;;;;;5055572;28;20224;-77
2023/12/19 12:38:40;;;;;;;12.73;11.23;;;9.70;99.90;;;;;;5055689;28;20220;-77
2023/12/19 12:41:07;;;;;;;12.88;11.52;;;9.70;99.90;;;;;;5055885;28;20224;-77
2023/12/19 12:43:39;;;;;;;11.85;10.60;;;9.70;99.90;;;;;;5055186;28;20575;-77
2023/12/19 12:46:11;;;;;;;11.07;9.52;;;9.70;99.90;;;;;;5055403;28;20231;-77
2023/12/19 12:48:40;;;;;;;12.88;10.68;;;9.70;99.90;;;;;;5055608;28;20675;-79
2023/12/19 12:51:07;;;;;;;12.40;11.10;;;9.70;99.90;;;;;;5055484;28;20229;-77